sensor_id;sensor_type;location;lat;lon;timestamp;pressure;altitude;pressure_sealevel;temperature;humidity
55610;BME280;41486;52.502;13.486;2023-02-12T00:01:30;102763.59;;;7.05;100.00
55610;BME280;41486;52.502;13.486;2023-02-12T00:03:59;102764.66;;;6.98;100.00
55610;BME280;41486;52.502;13.486;2023-02-12T00:06:27;102772.56;;;6.94;100.00
55610;BME280;41486;52.502;13.486;2023-02-12T00:08:57;102763.94;;;6.91;100.00
55610;BME280;41486;52.502;13.486;2023-02-12T00:11:28;102778.75;;;6.92;100.00
55610;BME280;41486;52.502;13.486;2023-02-12T00:13:56;102780.44;;;6.94;100.00
55610;BME280;41486;52.502;13.486;2023-02-12T00:16:27;102785.78;;;6.90;100.00
55610;BME280;41486;52.502;13.486;2023-02-12T00:19:01;102788.50;;;6.87;100.00
55610;BME280;41486;52.502;13.486;2023-02-12T00:21:29;102790.34;;;6.83;100.00
55610;BME280;41486;52.502;13.486;2023-02-12T00:24:00;102786.84;;;6.83;100.00
55610;BME280;41486;52.502;13.486;2023-02-12T00:26:30;102791.13;;;6.85;100.00
55610;BME280;41486;52.502;13.486;2023-02-12T00:28:58;102787.63;;;6.86;100.00
55610;BME280;41486;52.502;13.486;2023-02-12T00:31:29;102792.06;;;6.84;100.00
55610;BME280;41486;52.502;13.486;2023-02-12T00:33:58;102795.47;;;6.86;100.00
55610;BME280;41486;52.502;13.486;2023-02-12T00:36:29;102802.44;;;6.87;100.00
55610;BME280;41486;52.502;13.486;2023-02-12T00:38:58;102792.97;;;6.83;100.00
55610;BME280;41486;52.502;13.486;2023-02-12T00:41:27;102794.69;;;6.83;100.00
55610;BME280;41486;52.502;13.486;2023-02-12T00:43:56;102782.66;;;6.77;100.00
55610;BME280;41486;52.502;13.486;2023-02-12T00:46:25;102790.41;;;6.80;100.00
55610;BME280;41486;52.502;13.486;2023-02-12T00:48:53;102799.91;;;6.84;100.00
55610;BME280;41486;52.502;13.486;2023-02-12T00:51:21;102800.16;;;6.75;100.00
55610;BME280;41486;52.502;13.486;2023-02-12T00:53:49;102803.59;;;6.75;100.00
55610;BME280;41486;52.502;13.486;2023-02-12T00:56:17;102813.25;;;6.73;100.00
55610;BME280;41486;52.502;13.486;2023-02-12T00:58:47;102814.13;;;6.74;100.00
55610;BME280;41486;52.502;13.486;2023-02-12T01:01:17;102817.63;;;6.73;100.00
55610;BME280;41486;52.502;13.486;2023-02-12T01:03:45;102826.22;;;6.78;100.00
55610;BME280;41486;52.502;13.486;2023-02-12T01:06:13;102823.75;;;6.72;100.00
55610;BME280;41486;52.502;13.486;2023-02-12T01:08:41;102827.16;;;6.75;100.00
55610;BME280;41486;52.502;13.486;2023-02-12T01:11:11;102829.09;;;6.69;100.00
55610;BME280;41486;52.502;13.486;2023-02-12T01:13:39;102831.56;;;6.73;100.00
55610;BME280;41486;52.502;13.486;2023-02-12T01:16:09;102828.94;;;6.75;100.00
55610;BME280;41486;52.502;13.486;2023-02-12T01:18:42;102823.09;;;6.63;100.00
55610;BME280;41486;52.502;13.486;2023-02-12T01:21:11;102828.84;;;6.78;100.00
55610;BME280;41486;52.502;13.486;2023-02-12T01:23:40;102828.06;;;6.74;100.00
55610;BME280;41486;52.502;13.486;2023-02-12T01:26:08;102828.69;;;6.84;100.00
55610;BME280;41486;52.502;13.486;2023-02-12T01:28:38;102834.16;;;6.75;100.00
55610;BME280;41486;52.502;13.486;2023-02-12T01:31:09;102831.53;;;6.75;100.00
55610;BME280;41486;52.502;13.486;2023-02-12T01:33:38;102835.91;;;6.74;100.00
55610;BME280;41486;52.502;13.486;2023-02-12T01:36:09;102837.72;;;6.72;100.00
55610;BME280;41486;52.502;13.486;2023-02-12T01:38:37;102833.44;;;6.68;100.00
55610;BME280;41486;52.502;13.486;2023-02-12T01:41:09;102842.84;;;6.77;100.00
55610;BME280;41486;52.502;13.486;2023-02-12T01:43:38;102842.91;;;6.74;100.00
55610;BME280;41486;52.502;13.486;2023-02-12T01:46:11;102843.06;;;6.68;100.00
55610;BME280;41486;52.502;13.486;2023-02-12T01:48:42;102851.88;;;6.63;100.00
55610;BME280;41486;52.502;13.486;2023-02-12T01:51:16;102853.63;;;6.63;100.00
55610;BME280;41486;52.502;13.486;2023-02-12T01:53:52;102856.16;;;6.66;100.00
55610;BME280;41486;52.502;13.486;2023-02-12T01:56:22;102857.88;;;6.67;100.00
55610;BME280;41486;52.502;13.486;2023-02-12T01:58:52;102857.03;;;6.67;100.00
55610;BME280;41486;52.502;13.486;2023-02-12T02:01:26;102859.50;;;6.73;100.00
55610;BME280;41486;52.502;13.486;2023-02-12T02:03:59;102864.00;;;6.66;100.00
55610;BME280;41486;52.502;13.486;2023-02-12T02:06:31;102862.28;;;6.65;100.00
55610;BME280;41486;52.502;13.486;2023-02-12T02:09:02;102866.06;;;6.53;100.00
55610;BME280;41486;52.502;13.486;2023-02-12T02:11:31;102870.19;;;6.63;100.00
55610;BME280;41486;52.502;13.486;2023-02-12T02:14:17;102864.06;;;6.65;100.00
55610;BME280;41486;52.502;13.486;2023-02-12T02:17:10;102866.53;;;6.71;100.00
55610;BME280;41486;52.502;13.486;2023-02-12T02:19:55;102877.97;;;6.67;100.00
55610;BME280;41486;52.502;13.486;2023-02-12T02:22:30;102863.88;;;6.72;100.00
55610;BME280;41486;52.502;13.486;2023-02-12T02:25:25;102864.72;;;6.73;100.00
55610;BME280;41486;52.502;13.486;2023-02-12T02:28:17;102870.81;;;6.75;100.00
55610;BME280;41486;52.502;13.486;2023-02-12T02:30:55;102859.66;;;6.65;100.00
55610;BME280;41486;52.502;13.486;2023-02-12T02:33:36;102863.22;;;6.62;100.00
55610;BME280;41486;52.502;13.486;2023-02-12T02:36:14;102874.69;;;6.58;100.00
55610;BME280;41486;52.502;13.486;2023-02-12T02:38:53;102869.56;;;6.54;100.00
55610;BME280;41486;52.502;13.486;2023-02-12T02:41:28;102873.84;;;6.56;100.00
55610;BME280;41486;52.502;13.486;2023-02-12T02:43:58;102871.28;;;6.55;100.00
55610;BME280;41486;52.502;13.486;2023-02-12T02:46:32;102866.06;;;6.53;100.00
55610;BME280;41486;52.502;13.486;2023-02-12T02:49:04;102867.78;;;6.54;100.00
55610;BME280;41486;52.502;13.486;2023-02-12T02:51:37;102875.63;;;6.54;100.00
55610;BME280;41486;52.502;13.486;2023-02-12T02:54:10;102876.50;;;6.55;100.00
55610;BME280;41486;52.502;13.486;2023-02-12T02:56:41;102869.56;;;6.54;100.00
55610;BME280;41486;52.502;13.486;2023-02-12T02:59:13;102880.06;;;6.52;100.00
55610;BME280;41486;52.502;13.486;2023-02-12T03:01:48;102880.00;;;6.54;100.00
55610;BME280;41486;52.502;13.486;2023-02-12T03:04:21;102882.69;;;6.52;100.00
55610;BME280;41486;52.502;13.486;2023-02-12T03:06:55;102883.47;;;6.56;100.00
55610;BME280;41486;52.502;13.486;2023-02-12T03:09:31;102890.53;;;6.51;100.00
55610;BME280;41486;52.502;13.486;2023-02-12T03:12:02;102888.81;;;6.50;100.00
55610;BME280;41486;52.502;13.486;2023-02-12T03:14:37;102897.53;;;6.50;100.00
55610;BME280;41486;52.502;13.486;2023-02-12T03:17:09;102892.34;;;6.49;100.00
55610;BME280;41486;52.502;13.486;2023-02-12T03:19:41;102898.38;;;6.51;100.00
55610;BME280;41486;52.502;13.486;2023-02-12T03:22:13;102901.88;;;6.51;100.00
55610;BME280;41486;52.502;13.486;2023-02-12T03:24:45;102903.59;;;6.52;100.00
55610;BME280;41486;52.502;13.486;2023-02-12T03:27:19;102910.63;;;6.50;100.00
55610;BME280;41486;52.502;13.486;2023-02-12T03:29:49;102903.72;;;6.47;100.00
55610;BME280;41486;52.502;13.486;2023-02-12T03:32:26;102906.31;;;6.47;100.00
55610;BME280;41486;52.502;13.486;2023-02-12T03:35:05;102905.59;;;6.41;100.00
55610;BME280;41486;52.502;13.486;2023-02-12T03:37:38;102908.22;;;6.41;100.00
55610;BME280;41486;52.502;13.486;2023-02-12T03:40:14;102908.22;;;6.41;100.00
55610;BME280;41486;52.502;13.486;2023-02-12T03:42:49;102914.28;;;6.43;100.00
55610;BME280;41486;52.502;13.486;2023-02-12T03:45:30;102916.88;;;6.43;100.00
55610;BME280;41486;52.502;13.486;2023-02-12T03:48:10;102919.41;;;6.47;100.00
55610;BME280;41486;52.502;13.486;2023-02-12T03:50:45;102916.78;;;6.46;100.00
55610;BME280;41486;52.502;13.486;2023-02-12T03:53:14;102920.31;;;6.45;100.00
55610;BME280;41486;52.502;13.486;2023-02-12T03:55:44;102918.53;;;6.47;100.00
55610;BME280;41486;52.502;13.486;2023-02-12T03:58:18;102916.91;;;6.41;100.00
55610;BME280;41486;52.502;13.486;2023-02-12T04:00:47;102923.25;;;6.29;100.00
55610;BME280;41486;52.502;13.486;2023-02-12T04:03:16;102930.41;;;6.23;100.00
55610;BME280;41486;52.502;13.486;2023-02-12T04:05:46;102937.94;;;6.37;100.00
55610;BME280;41486;52.502;13.486;2023-02-12T04:08:14;102932.63;;;6.40;100.00
55610;BME280;41486;52.502;13.486;2023-02-12T04:10:52;102933.50;;;6.40;100.00
55610;BME280;41486;52.502;13.486;2023-02-12T04:13:27;102935.34;;;6.37;100.00
55610;BME280;41486;52.502;13.486;2023-02-12T04:16:06;102939.66;;;6.38;100.00
55610;BME280;41486;52.502;13.486;2023-02-12T04:18:43;102941.47;;;6.36;100.00
55610;BME280;41486;52.502;13.486;2023-02-12T04:21:19;102943.19;;;6.37;100.00
55610;BME280;41486;52.502;13.486;2023-02-12T04:24:02;102939.72;;;6.35;100.00
55610;BME280;41486;52.502;13.486;2023-02-12T04:26:36;102936.91;;;6.44;100.00
55610;BME280;41486;52.502;13.486;2023-02-12T04:29:13;102949.22;;;6.39;100.00
55610;BME280;41486;52.502;13.486;2023-02-12T04:31:48;102942.34;;;6.35;100.00
55610;BME280;41486;52.502;13.486;2023-02-12T04:34:23;102945.91;;;6.32;100.00
55610;BME280;41486;52.502;13.486;2023-02-12T04:36:55;102948.53;;;6.30;100.00
55610;BME280;41486;52.502;13.486;2023-02-12T04:39:28;102947.72;;;6.27;100.00
55610;BME280;41486;52.502;13.486;2023-02-12T04:41:58;102940.66;;;6.32;100.00
55610;BME280;41486;52.502;13.486;2023-02-12T04:44:28;102952.16;;;6.25;100.00
55610;BME280;41486;52.502;13.486;2023-02-12T04:46:56;102948.84;;;6.15;100.00
55610;BME280;41486;52.502;13.486;2023-02-12T04:49:26;102946.22;;;6.17;100.00
55610;BME280;41486;52.502;13.486;2023-02-12T04:51:54;102945.44;;;6.11;100.00
55610;BME280;41486;52.502;13.486;2023-02-12T04:54:22;102948.97;;;6.09;100.00
55610;BME280;41486;52.502;13.486;2023-02-12T04:56:51;102939.16;;;6.20;100.00
55610;BME280;41486;52.502;13.486;2023-02-12T04:59:19;102950.69;;;6.10;100.00
55610;BME280;41486;52.502;13.486;2023-02-12T05:01:47;102943.75;;;6.09;100.00
55610;BME280;41486;52.502;13.486;2023-02-12T05:04:16;102942.91;;;6.07;100.00
55610;BME280;41486;52.502;13.486;2023-02-12T05:06:45;102946.41;;;6.06;100.00
55610;BME280;41486;52.502;13.486;2023-02-12T05:09:16;102962.09;;;6.06;100.00
55610;BME280;41486;52.502;13.486;2023-02-12T05:11:45;102949.72;;;6.14;100.00
55610;BME280;41486;52.502;13.486;2023-02-12T05:14:12;102948.75;;;6.20;100.00
55610;BME280;41486;52.502;13.486;2023-02-12T05:16:40;102949.81;;;6.11;100.00
55610;BME280;41486;52.502;13.486;2023-02-12T05:19:08;102949.81;;;6.09;100.00
55610;BME280;41486;52.502;13.486;2023-02-12T05:21:37;102955.94;;;6.10;100.00
55610;BME280;41486;52.502;13.486;2023-02-12T05:24:07;102950.59;;;6.14;100.00
55610;BME280;41486;52.502;13.486;2023-02-12T05:26:35;102950.53;;;6.19;100.00
55610;BME280;41486;52.502;13.486;2023-02-12T05:29:03;102958.38;;;6.19;100.00
55610;BME280;41486;52.502;13.486;2023-02-12T05:31:32;102960.88;;;6.24;100.00
55610;BME280;41486;52.502;13.486;2023-02-12T05:34:00;102970.47;;;6.23;100.00
55610;BME280;41486;52.502;13.486;2023-02-12T05:36:28;102973.16;;;6.19;100.00
55610;BME280;41486;52.502;13.486;2023-02-12T05:38:57;102978.16;;;6.29;100.00
55610;BME280;41486;52.502;13.486;2023-02-12T05:41:27;102975.31;;;6.42;100.00
55610;BME280;41486;52.502;13.486;2023-02-12T05:44:00;102978.16;;;6.31;100.00
55610;BME280;41486;52.502;13.486;2023-02-12T05:46:28;102976.34;;;6.35;100.00
55610;BME280;41486;52.502;13.486;2023-02-12T05:48:56;102973.91;;;6.25;100.00
55610;BME280;41486;52.502;13.486;2023-02-12T05:51:25;102980.78;;;6.31;100.00
55610;BME280;41486;52.502;13.486;2023-02-12T05:53:56;102981.56;;;6.35;100.00
55610;BME280;41486;52.502;13.486;2023-02-12T05:56:28;102978.06;;;6.36;100.00
55610;BME280;41486;52.502;13.486;2023-02-12T05:58:57;102977.97;;;6.40;100.00
55610;BME280;41486;52.502;13.486;2023-02-12T06:01:28;102978.97;;;6.35;100.00
55610;BME280;41486;52.502;13.486;2023-02-12T06:03:57;102980.97;;;6.22;100.00
55610;BME280;41486;52.502;13.486;2023-02-12T06:06:26;102983.25;;;6.37;100.00
55610;BME280;41486;52.502;13.486;2023-02-12T06:08:54;102986.81;;;6.35;100.00
55610;BME280;41486;52.502;13.486;2023-02-12T06:11:23;102980.59;;;6.39;100.00
55610;BME280;41486;52.502;13.486;2023-02-12T06:13:52;102984.16;;;6.36;100.00
55610;BME280;41486;52.502;13.486;2023-02-12T06:16:22;102991.94;;;6.39;100.00
55610;BME280;41486;52.502;13.486;2023-02-12T06:18:52;102995.50;;;6.37;100.00
55610;BME280;41486;52.502;13.486;2023-02-12T06:21:21;102998.09;;;6.37;100.00
55610;BME280;41486;52.502;13.486;2023-02-12T06:23:50;103000.53;;;6.44;100.00
55610;BME280;41486;52.502;13.486;2023-02-12T06:26:19;103012.88;;;6.38;100.00
55610;BME280;41486;52.502;13.486;2023-02-12T06:28:48;103014.63;;;6.37;100.00
55610;BME280;41486;52.502;13.486;2023-02-12T06:31:19;103013.66;;;6.41;100.00
55610;BME280;41486;52.502;13.486;2023-02-12T06:33:48;103018.09;;;6.39;100.00
55610;BME280;41486;52.502;13.486;2023-02-12T06:36:16;103026.75;;;6.43;100.00
55610;BME280;41486;52.502;13.486;2023-02-12T06:38:47;103025.84;;;6.42;100.00
55610;BME280;41486;52.502;13.486;2023-02-12T06:41:15;103029.19;;;6.51;100.00
55610;BME280;41486;52.502;13.486;2023-02-12T06:43:43;103035.31;;;6.50;100.00
55610;BME280;41486;52.502;13.486;2023-02-12T06:46:13;103031.13;;;6.41;100.00
55610;BME280;41486;52.502;13.486;2023-02-12T06:48:43;103037.16;;;6.44;100.00
55610;BME280;41486;52.502;13.486;2023-02-12T06:51:12;103041.59;;;6.41;100.00
55610;BME280;41486;52.502;13.486;2023-02-12T06:53:41;103037.91;;;6.50;100.00
55610;BME280;41486;52.502;13.486;2023-02-12T06:56:11;103050.28;;;6.41;100.00
55610;BME280;41486;52.502;13.486;2023-02-12T06:58:42;103046.88;;;6.39;100.00
55610;BME280;41486;52.502;13.486;2023-02-12T07:01:12;103048.69;;;6.34;100.00
55610;BME280;41486;52.502;13.486;2023-02-12T07:03:47;103053.03;;;6.37;100.00
55610;BME280;41486;52.502;13.486;2023-02-12T07:06:16;103053.84;;;6.39;100.00
55610;BME280;41486;52.502;13.486;2023-02-12T07:08:44;103059.00;;;6.42;100.00
55610;BME280;41486;52.502;13.486;2023-02-12T07:11:12;103064.88;;;6.53;100.00
55610;BME280;41486;52.502;13.486;2023-02-12T07:13:42;103062.38;;;6.47;100.00
55610;BME280;41486;52.502;13.486;2023-02-12T07:16:12;103061.53;;;6.46;100.00
55610;BME280;41486;52.502;13.486;2023-02-12T07:18:41;103068.53;;;6.44;100.00
55610;BME280;41486;52.502;13.486;2023-02-12T07:21:12;103063.25;;;6.47;100.00
55610;BME280;41486;52.502;13.486;2023-02-12T07:23:41;103064.19;;;6.43;100.00
55610;BME280;41486;52.502;13.486;2023-02-12T07:26:11;103068.50;;;6.46;100.00
55610;BME280;41486;52.502;13.486;2023-02-12T07:28:40;103078.84;;;6.54;100.00
55610;BME280;41486;52.502;13.486;2023-02-12T07:31:09;103077.06;;;6.56;100.00
55610;BME280;41486;52.502;13.486;2023-02-12T07:33:38;103077.81;;;6.61;100.00
55610;BME280;41486;52.502;13.486;2023-02-12T07:36:12;103077.84;;;6.59;100.00
55610;BME280;41486;52.502;13.486;2023-02-12T07:38:40;103076.03;;;6.61;100.00
55610;BME280;41486;52.502;13.486;2023-02-12T07:41:10;103079.56;;;6.60;100.00
55610;BME280;41486;52.502;13.486;2023-02-12T07:43:39;103076.09;;;6.60;100.00
55610;BME280;41486;52.502;13.486;2023-02-12T07:46:08;103080.34;;;6.66;100.00
55610;BME280;41486;52.502;13.486;2023-02-12T07:48:37;103084.03;;;6.55;100.00
55610;BME280;41486;52.502;13.486;2023-02-12T07:51:06;103077.66;;;6.69;100.00
55610;BME280;41486;52.502;13.486;2023-02-12T07:53:36;103094.16;;;6.71;100.00
55610;BME280;41486;52.502;13.486;2023-02-12T07:56:09;103095.94;;;6.70;100.00
55610;BME280;41486;52.502;13.486;2023-02-12T07:58:39;103096.97;;;6.63;100.00
55610;BME280;41486;52.502;13.486;2023-02-12T08:01:13;103097.78;;;6.65;100.00
55610;BME280;41486;52.502;13.486;2023-02-12T08:03:42;103107.72;;;6.90;100.00
55610;BME280;41486;52.502;13.486;2023-02-12T08:06:12;103099.97;;;6.85;100.00
55610;BME280;41486;52.502;13.486;2023-02-12T08:08:42;103100.09;;;6.79;100.00
55610;BME280;41486;52.502;13.486;2023-02-12T08:11:12;103102.72;;;6.81;100.00
55610;BME280;41486;52.502;13.486;2023-02-12T08:13:40;103107.97;;;6.79;100.00
55610;BME280;41486;52.502;13.486;2023-02-12T08:16:10;103103.56;;;6.81;100.00
55610;BME280;41486;52.502;13.486;2023-02-12T08:18:39;103107.81;;;6.87;100.00
55610;BME280;41486;52.502;13.486;2023-02-12T08:21:10;103110.38;;;6.88;100.00
55610;BME280;41486;52.502;13.486;2023-02-12T08:23:38;103111.38;;;6.83;100.00
55610;BME280;41486;52.502;13.486;2023-02-12T08:26:10;103116.22;;;7.01;100.00
55610;BME280;41486;52.502;13.486;2023-02-12T08:28:41;103117.31;;;6.92;100.00
55610;BME280;41486;52.502;13.486;2023-02-12T08:31:11;103125.91;;;6.98;100.00
55610;BME280;41486;52.502;13.486;2023-02-12T08:33:39;103123.53;;;6.85;100.00
55610;BME280;41486;52.502;13.486;2023-02-12T08:36:09;103130.25;;;6.97;100.00
55610;BME280;41486;52.502;13.486;2023-02-12T08:38:38;103139.59;;;6.68;100.00
55610;BME280;41486;52.502;13.486;2023-02-12T08:41:10;103133.00;;;6.91;100.00
55610;BME280;41486;52.502;13.486;2023-02-12T08:43:39;103139.41;;;6.77;100.00
55610;BME280;41486;52.502;13.486;2023-02-12T08:46:10;103129.69;;;6.83;100.00
55610;BME280;41486;52.502;13.486;2023-02-12T08:48:39;103140.72;;;6.97;100.00
55610;BME280;41486;52.502;13.486;2023-02-12T08:51:09;103148.47;;;7.03;100.00
55610;BME280;41486;52.502;13.486;2023-02-12T08:53:38;103149.94;;;7.17;100.00
55610;BME280;41486;52.502;13.486;2023-02-12T08:56:07;103146.53;;;7.13;100.00
55610;BME280;41486;52.502;13.486;2023-02-12T08:58:37;103151.00;;;7.08;100.00
55610;BME280;41486;52.502;13.486;2023-02-12T09:01:08;103150.78;;;7.17;100.00
55610;BME280;41486;52.502;13.486;2023-02-12T09:03:37;103149.97;;;7.15;100.00
55610;BME280;41486;52.502;13.486;2023-02-12T09:06:06;103157.00;;;7.13;100.00
55610;BME280;41486;52.502;13.486;2023-02-12T09:08:36;103159.47;;;7.19;100.00
55610;BME280;41486;52.502;13.486;2023-02-12T09:11:06;103161.91;;;7.29;100.00
55610;BME280;41486;52.502;13.486;2023-02-12T09:13:38;103165.41;;;7.28;100.00
55610;BME280;41486;52.502;13.486;2023-02-12T09:16:07;103166.19;;;7.33;100.00
55610;BME280;41486;52.502;13.486;2023-02-12T09:18:35;103171.44;;;7.33;100.00
55610;BME280;41486;52.502;13.486;2023-02-12T09:21:08;103176.75;;;7.28;100.00
55610;BME280;41486;52.502;13.486;2023-02-12T09:23:37;103175.06;;;7.25;100.00
55610;BME280;41486;52.502;13.486;2023-02-12T09:26:06;103181.25;;;7.21;100.00
55610;BME280;41486;52.502;13.486;2023-02-12T09:28:35;103177.81;;;7.19;100.00
55610;BME280;41486;52.502;13.486;2023-02-12T09:31:05;103184.69;;;7.25;100.00
55610;BME280;41486;52.502;13.486;2023-02-12T09:33:34;103188.28;;;7.19;100.00
55610;BME280;41486;52.502;13.486;2023-02-12T09:36:03;103188.28;;;7.21;100.00
55610;BME280;41486;52.502;13.486;2023-02-12T09:38:31;103188.84;;;7.34;100.00
55610;BME280;41486;52.502;13.486;2023-02-12T09:41:23;103185.38;;;7.33;100.00
55610;BME280;41486;52.502;13.486;2023-02-12T09:43:58;103186.41;;;7.26;100.00
55610;BME280;41486;52.502;13.486;2023-02-12T09:46:34;103186.16;;;7.37;100.00
55610;BME280;41486;52.502;13.486;2023-02-12T09:49:08;103190.84;;;7.22;100.00
55610;BME280;41486;52.502;13.486;2023-02-12T09:51:38;103198.38;;;7.38;100.00
55610;BME280;41486;52.502;13.486;2023-02-12T09:54:13;103196.50;;;7.45;100.00
55610;BME280;41486;52.502;13.486;2023-02-12T09:56:45;103197.19;;;7.51;100.00
55610;BME280;41486;52.502;13.486;2023-02-12T09:59:24;103189.19;;;7.57;100.00
55610;BME280;41486;52.502;13.486;2023-02-12T10:02:00;103194.31;;;7.62;100.00
55610;BME280;41486;52.502;13.486;2023-02-12T10:04:28;103194.81;;;7.80;100.00
55610;BME280;41486;52.502;13.486;2023-02-12T10:07:02;103196.56;;;7.79;100.00
55610;BME280;41486;52.502;13.486;2023-02-12T10:09:50;103197.72;;;7.67;100.00
55610;BME280;41486;52.502;13.486;2023-02-12T10:12:29;103192.69;;;7.58;100.00
55610;BME280;41486;52.502;13.486;2023-02-12T10:15:09;103194.94;;;7.73;100.00
55610;BME280;41486;52.502;13.486;2023-02-12T10:17:43;103197.00;;;7.61;100.00
55610;BME280;41486;52.502;13.486;2023-02-12T10:20:36;103191.00;;;7.55;100.00
55610;BME280;41486;52.502;13.486;2023-02-12T10:23:20;103194.63;;;7.50;100.00
55610;BME280;41486;52.502;13.486;2023-02-12T10:25:53;103197.28;;;7.48;100.00
55610;BME280;41486;52.502;13.486;2023-02-12T10:28:25;103194.56;;;7.51;100.00
55610;BME280;41486;52.502;13.486;2023-02-12T10:30:58;103191.78;;;7.59;100.00
55610;BME280;41486;52.502;13.486;2023-02-12T10:33:31;103197.75;;;7.66;100.00
55610;BME280;41486;52.502;13.486;2023-02-12T10:36:13;103193.94;;;7.41;100.00
55610;BME280;41486;52.502;13.486;2023-02-12T10:38:50;103195.47;;;7.50;100.00
55610;BME280;41486;52.502;13.486;2023-02-12T10:41:21;103193.75;;;7.49;100.00
55610;BME280;41486;52.502;13.486;2023-02-12T10:43:51;103186.69;;;7.53;100.00
55610;BME280;41486;52.502;13.486;2023-02-12T10:46:22;103191.00;;;7.55;100.00
55610;BME280;41486;52.502;13.486;2023-02-12T10:48:55;103182.69;;;7.76;100.00
55610;BME280;41486;52.502;13.486;2023-02-12T10:51:42;103190.91;;;7.58;100.00
55610;BME280;41486;52.502;13.486;2023-02-12T10:54:35;103193.38;;;7.66;100.00
55610;BME280;41486;52.502;13.486;2023-02-12T10:57:08;103196.25;;;7.55;100.00
55610;BME280;41486;52.502;13.486;2023-02-12T10:59:37;103190.16;;;7.53;100.00
55610;BME280;41486;52.502;13.486;2023-02-12T11:02:21;103190.06;;;7.58;100.00
55610;BME280;41486;52.502;13.486;2023-02-12T11:04:52;103190.81;;;7.65;100.00
55610;BME280;41486;52.502;13.486;2023-02-12T11:07:21;103185.97;;;7.46;100.00
55610;BME280;41486;52.502;13.486;2023-02-12T11:09:51;103200.78;;;7.47;100.00
55610;BME280;41486;52.502;13.486;2023-02-12T11:12:25;103191.22;;;7.46;100.00
55610;BME280;41486;52.502;13.486;2023-02-12T11:14:59;103193.97;;;7.38;100.00
55610;BME280;41486;52.502;13.486;2023-02-12T11:17:34;103192.25;;;7.37;100.00
55610;BME280;41486;52.502;13.486;2023-02-12T11:20:19;103201.09;;;7.33;100.00
55610;BME280;41486;52.502;13.486;2023-02-12T11:22:53;103190.16;;;7.14;100.00
55610;BME280;41486;52.502;13.486;2023-02-12T11:25:22;103188.97;;;7.28;100.00
55610;BME280;41486;52.502;13.486;2023-02-12T11:28:13;103184.44;;;7.36;100.00
55610;BME280;41486;52.502;13.486;2023-02-12T11:30:55;103187.19;;;7.30;100.00
55610;BME280;41486;52.502;13.486;2023-02-12T11:33:30;103177.56;;;7.30;100.00
55610;BME280;41486;52.502;13.486;2023-02-12T11:36:04;103184.53;;;7.33;100.00
55610;BME280;41486;52.502;13.486;2023-02-12T11:38:38;103188.00;;;7.33;100.00
55610;BME280;41486;52.502;13.486;2023-02-12T11:41:17;103185.31;;;7.35;100.00
55610;BME280;41486;52.502;13.486;2023-02-12T11:43:47;103180.28;;;7.27;100.00
55610;BME280;41486;52.502;13.486;2023-02-12T11:46:19;103180.41;;;7.21;100.00
55610;BME280;41486;52.502;13.486;2023-02-12T11:48:49;103173.91;;;7.37;100.00
55610;BME280;41486;52.502;13.486;2023-02-12T11:51:23;103175.34;;;7.52;100.00
55610;BME280;41486;52.502;13.486;2023-02-12T11:53:53;103166.06;;;7.75;100.00
55610;BME280;41486;52.502;13.486;2023-02-12T11:56:23;103175.19;;;7.60;100.00
55610;BME280;41486;52.502;13.486;2023-02-12T11:58:51;103166.47;;;7.58;100.00
55610;BME280;41486;52.502;13.486;2023-02-12T12:01:22;103172.50;;;7.62;100.00
55610;BME280;41486;52.502;13.486;2023-02-12T12:03:57;103182.41;;;7.49;100.00
55610;BME280;41486;52.502;13.486;2023-02-12T12:06:34;103176.22;;;7.51;100.00
55610;BME280;41486;52.502;13.486;2023-02-12T12:09:08;103166.69;;;7.49;100.00
55610;BME280;41486;52.502;13.486;2023-02-12T12:11:45;103165.78;;;7.50;100.00
55610;BME280;41486;52.502;13.486;2023-02-12T12:14:21;103160.59;;;7.48;100.00
55610;BME280;41486;52.502;13.486;2023-02-12T12:16:58;103176.44;;;7.42;100.00
55610;BME280;41486;52.502;13.486;2023-02-12T12:19:53;103167.69;;;7.43;100.00
55610;BME280;41486;52.502;13.486;2023-02-12T12:22:40;103173.63;;;7.51;100.00
55610;BME280;41486;52.502;13.486;2023-02-12T12:25:20;103165.94;;;7.44;100.00
55610;BME280;41486;52.502;13.486;2023-02-12T12:28:07;103162.88;;;7.62;100.00
55610;BME280;41486;52.502;13.486;2023-02-12T12:30:52;103161.84;;;7.69;100.00
55610;BME280;41486;52.502;13.486;2023-02-12T12:33:30;103146.94;;;7.71;100.00
55610;BME280;41486;52.502;13.486;2023-02-12T12:36:35;103142.78;;;7.63;100.00
55610;BME280;41486;52.502;13.486;2023-02-12T12:39:26;103135.84;;;7.96;100.00
55610;BME280;41486;52.502;13.486;2023-02-12T12:42:11;103134.53;;;8.47;100.00
55610;BME280;41486;52.502;13.486;2023-02-12T12:45:09;103133.25;;;8.62;100.00
55610;BME280;41486;52.502;13.486;2023-02-12T12:47:53;103126.56;;;8.17;100.00
55610;BME280;41486;52.502;13.486;2023-02-12T12:50:37;103134.09;;;7.97;100.00
55610;BME280;41486;52.502;13.486;2023-02-12T12:53:41;103126.09;;;8.34;100.00
55610;BME280;41486;52.502;13.486;2023-02-12T12:56:34;103131.53;;;8.28;100.00
55610;BME280;41486;52.502;13.486;2023-02-12T12:59:40;103138.47;;;8.64;100.00
55610;BME280;41486;52.502;13.486;2023-02-12T13:02:38;103143.22;;;8.16;100.00
55610;BME280;41486;52.502;13.486;2023-02-12T13:05:38;103136.59;;;8.01;100.00
55610;BME280;41486;52.502;13.486;2023-02-12T13:09:01;103142.13;;;8.58;100.00
55610;BME280;41486;52.502;13.486;2023-02-12T13:11:39;103141.47;;;8.17;100.00